Time;durP1;ratioP1;P1;durP2;ratioP2;P2;SDS_P1;SDS_P2;PMS_P1;PMS_P2;Temp;Humidity;BMP_temperature;BMP_pressure;BME280_temperature;BME280_humidity;BME280_pressure;Samples;Min_cycle;Max_cycle;Signal;HPM_P1;HPM_P2
2022/10/27 00:00:41;;;;;;;8.30;2.97;;;13.80;99.90;;;;;;5092287;28;20372;-73
2022/10/27 00:03:08;;;;;;;9.45;3.22;;;13.80;99.90;;;;;;5092888;28;20023;-74
2022/10/27 00:05:34;;;;;;;10.32;3.33;;;13.70;99.90;;;;;;5091509;28;20115;-75
2022/10/27 00:08:00;;;;;;;8.02;3.22;;;13.80;99.90;;;;;;5102044;28;20067;-76
2022/10/27 00:10:25;;;;;;;13.65;3.40;;;13.80;99.90;;;;;;5092539;28;20024;-76
2022/10/27 00:12:51;;;;;;;5.93;3.08;;;13.80;99.90;;;;;;5101913;28;20024;-75
2022/10/27 00:15:16;;;;;;;7.28;3.13;;;13.90;99.90;;;;;;5102427;28;20032;-75
2022/10/27 00:17:42;;;;;;;10.10;2.90;;;13.90;99.90;;;;;;5103947;28;20023;-76
2022/10/27 00:20:08;;;;;;;12.32;3.28;;;13.90;99.90;;;;;;5092518;28;20385;-77
2022/10/27 00:22:34;;;;;;;6.60;2.47;;;13.80;99.90;;;;;;5091795;28;20031;-77
2022/10/27 00:25:00;;;;;;;9.60;2.40;;;13.80;99.90;;;;;;5091676;28;20947;-77
2022/10/27 00:27:27;;;;;;;4.40;2.50;;;13.70;99.90;;;;;;5092350;28;20077;-76
2022/10/27 00:29:53;;;;;;;6.88;2.70;;;13.70;99.90;;;;;;5081877;28;20047;-75
2022/10/27 00:32:18;;;;;;;6.85;3.03;;;13.60;99.90;;;;;;5080401;28;20032;-77
2022/10/27 00:34:44;;;;;;;7.72;2.60;;;13.50;99.90;;;;;;5081953;28;20031;-76
2022/10/27 00:37:09;;;;;;;4.25;2.80;;;13.50;99.90;;;;;;5080124;28;20078;-73
2022/10/27 00:39:35;;;;;;;6.55;2.85;;;13.40;99.90;;;;;;5080723;28;20033;-73
2022/10/27 00:42:01;;;;;;;9.80;3.28;;;13.40;99.90;;;;;;5080283;28;20035;-76
2022/10/27 00:44:35;;;;;;;6.78;3.67;;;13.30;99.90;;;;;;5081834;28;20105;-76
2022/10/27 00:47:15;;;;;;;4.43;2.60;;;13.30;99.90;;;;;;5081451;28;20020;-72
2022/10/27 00:49:47;;;;;;;7.35;2.95;;;13.40;99.90;;;;;;5082973;28;20035;-79
2022/10/27 00:52:29;;;;;;;8.55;3.35;;;13.40;99.90;;;;;;5082178;28;20039;-78
2022/10/27 00:54:58;;;;;;;6.53;2.95;;;13.30;99.90;;;;;;5083289;28;20025;-81
2022/10/27 00:57:25;;;;;;;7.63;3.00;;;13.30;99.90;;;;;;5081595;28;20117;-83
2022/10/27 00:59:51;;;;;;;7.70;2.85;;;13.40;99.90;;;;;;5081630;28;20066;-80
2022/10/27 01:02:16;;;;;;;8.20;2.70;;;13.40;99.90;;;;;;5080654;28;20527;-80
2022/10/27 01:04:51;;;;;;;6.93;2.72;;;13.40;99.90;;;;;;5080735;28;20389;-79
2022/10/27 01:07:19;;;;;;;5.00;2.33;;;13.40;99.90;;;;;;5079969;28;20127;-78
2022/10/27 01:09:45;;;;;;;5.93;2.88;;;13.40;99.90;;;;;;5085399;28;20028;-84
2022/10/27 01:12:11;;;;;;;8.60;3.17;;;13.50;99.90;;;;;;5085134;28;20166;-83
2022/10/27 01:14:36;;;;;;;9.70;2.88;;;13.50;99.90;;;;;;5084791;28;20063;-83
2022/10/27 01:17:17;;;;;;;6.38;2.50;;;13.50;99.90;;;;;;5085486;28;20017;-84
2022/10/27 01:20:04;;;;;;;5.97;2.42;;;13.30;99.90;;;;;;5082475;28;20024;-86
2022/10/27 01:22:51;;;;;;;5.28;2.25;;;13.20;99.90;;;;;;5083186;28;20484;-86
2022/10/27 01:25:47;;;;;;;7.15;2.42;;;13.30;99.90;;;;;;5082951;28;20381;-85
2022/10/27 01:28:52;;;;;;;11.70;3.08;;;13.20;99.90;;;;;;5083630;28;20044;-85
2022/10/27 01:31:28;;;;;;;4.30;2.22;;;13.20;99.90;;;;;;5091327;28;20480;-85
2022/10/27 01:33:57;;;;;;;10.63;2.63;;;13.20;99.90;;;;;;5090355;28;20377;-85
2022/10/27 01:36:45;;;;;;;6.32;2.70;;;13.20;99.90;;;;;;5093665;28;20032;-85
2022/10/27 01:39:29;;;;;;;5.03;2.28;;;13.10;99.90;;;;;;5094803;28;20040;-85
2022/10/27 01:42:25;;;;;;;4.90;2.35;;;13.00;99.90;;;;;;5094710;28;20035;-87
2022/10/27 01:44:55;;;;;;;5.82;2.60;;;13.00;99.90;;;;;;5062645;28;20090;-86
2022/10/27 01:47:22;;;;;;;5.15;2.13;;;13.00;99.90;;;;;;5095368;28;20020;-87
2022/10/27 01:49:53;;;;;;;8.80;2.47;;;13.10;99.90;;;;;;5096161;28;20032;-86
2022/10/27 01:52:42;;;;;;;5.40;2.47;;;13.10;99.90;;;;;;5095090;28;20452;-87
2022/10/27 01:55:19;;;;;;;6.28;2.00;;;13.10;99.90;;;;;;5094950;28;20103;-86
2022/10/27 01:57:48;;;;;;;5.90;1.92;;;13.00;99.90;;;;;;5096623;28;20027;-87
2022/10/27 02:00:14;;;;;;;4.45;2.10;;;13.00;99.90;;;;;;5096347;28;20028;-87
2022/10/27 02:03:14;;;;;;;7.88;2.30;;;13.00;99.90;;;;;;5096676;28;20032;-86
2022/10/27 02:05:52;;;;;;;4.80;2.15;;;13.10;99.90;;;;;;5090170;28;20039;-87
2022/10/27 02:08:30;;;;;;;4.10;2.28;;;13.00;99.90;;;;;;5095750;28;20036;-85
2022/10/27 02:11:07;;;;;;;6.72;2.70;;;13.00;99.90;;;;;;5092846;28;20036;-86
2022/10/27 02:13:36;;;;;;;4.43;2.15;;;13.00;99.90;;;;;;5096364;28;20469;-85
2022/10/27 02:16:13;;;;;;;5.05;2.45;;;13.10;99.90;;;;;;5096949;28;20035;-84
2022/10/27 02:18:44;;;;;;;9.43;2.75;;;13.00;99.90;;;;;;5096142;28;20028;-85
2022/10/27 02:21:12;;;;;;;7.70;2.55;;;13.10;99.90;;;;;;5094663;28;20032;-84
2022/10/27 02:23:38;;;;;;;7.90;2.60;;;13.10;99.90;;;;;;5095585;28;20047;-84
2022/10/27 02:26:04;;;;;;;12.07;3.13;;;13.10;99.90;;;;;;5096493;28;20824;-84
2022/10/27 02:28:53;;;;;;;8.57;2.53;;;13.10;99.90;;;;;;5095568;28;20048;-84
2022/10/27 02:31:23;;;;;;;8.15;2.92;;;13.10;99.90;;;;;;5095888;28;20032;-85
2022/10/27 02:33:50;;;;;;;9.65;2.85;;;13.00;99.90;;;;;;5091425;28;20107;-85
2022/10/27 02:36:16;;;;;;;8.95;2.58;;;12.90;99.90;;;;;;5095307;28;20461;-84
2022/10/27 02:38:42;;;;;;;5.53;2.50;;;12.90;99.90;;;;;;5095901;28;20389;-85
2022/10/27 02:41:07;;;;;;;9.00;2.50;;;12.90;99.90;;;;;;5095050;28;20031;-85
2022/10/27 02:43:33;;;;;;;5.60;2.50;;;12.90;99.90;;;;;;5095449;28;20028;-85
2022/10/27 02:45:59;;;;;;;5.72;2.58;;;12.90;99.90;;;;;;5094710;28;20039;-84
2022/10/27 02:48:24;;;;;;;6.07;2.47;;;12.90;99.90;;;;;;5091200;28;20020;-83
2022/10/27 02:50:50;;;;;;;9.02;2.65;;;12.90;99.90;;;;;;5096208;28;20035;-84
2022/10/27 02:53:15;;;;;;;8.23;2.60;;;12.80;99.90;;;;;;5095597;28;20029;-82
2022/10/27 02:55:41;;;;;;;5.88;2.40;;;12.80;99.90;;;;;;5095512;28;20433;-83
2022/10/27 02:58:06;;;;;;;6.00;2.45;;;12.60;99.90;;;;;;5094834;28;20124;-83
2022/10/27 03:00:32;;;;;;;7.78;2.72;;;12.70;99.90;;;;;;5095355;28;20024;-83
2022/10/27 03:02:57;;;;;;;4.93;2.50;;;12.60;99.90;;;;;;5095111;28;20043;-84
2022/10/27 03:05:23;;;;;;;6.80;2.22;;;12.70;99.90;;;;;;5095050;28;20024;-82
2022/10/27 03:07:48;;;;;;;7.60;3.00;;;12.70;99.90;;;;;;5094487;28;20036;-84
2022/10/27 03:10:14;;;;;;;6.57;2.75;;;12.70;99.90;;;;;;5094076;28;20028;-83
2022/10/27 03:12:40;;;;;;;6.72;2.45;;;12.70;99.90;;;;;;5094746;28;20024;-83
2022/10/27 03:15:06;;;;;;;8.52;2.72;;;12.70;99.90;;;;;;5094141;28;20046;-85
2022/10/27 03:17:31;;;;;;;6.68;2.85;;;12.70;99.90;;;;;;5094483;28;20028;-85
2022/10/27 03:19:57;;;;;;;6.65;2.63;;;12.70;99.90;;;;;;5093955;28;20084;-85
2022/10/27 03:22:23;;;;;;;6.35;2.28;;;12.70;99.90;;;;;;5093855;28;20032;-85
2022/10/27 03:24:48;;;;;;;7.07;2.50;;;12.60;99.90;;;;;;5093907;28;20391;-86
2022/10/27 03:27:14;;;;;;;7.22;2.60;;;12.60;99.90;;;;;;5095798;28;20027;-85
2022/10/27 03:29:39;;;;;;;10.88;2.58;;;12.60;99.90;;;;;;5082829;28;20044;-85
2022/10/27 03:32:05;;;;;;;9.43;2.60;;;12.70;99.90;;;;;;5083699;28;20123;-85
2022/10/27 03:34:30;;;;;;;6.45;2.30;;;12.60;99.90;;;;;;5085918;28;20376;-85
2022/10/27 03:36:56;;;;;;;9.88;2.55;;;12.60;99.90;;;;;;5089358;28;20077;-85
2022/10/27 03:39:21;;;;;;;6.97;2.50;;;12.60;99.90;;;;;;5092692;28;20038;-85
2022/10/27 03:41:47;;;;;;;8.60;2.50;;;12.60;99.90;;;;;;5082155;28;20392;-83
2022/10/27 03:44:13;;;;;;;5.57;2.47;;;12.50;99.90;;;;;;5080252;28;20028;-83
2022/10/27 03:46:38;;;;;;;5.93;2.30;;;12.50;99.90;;;;;;5085480;28;20019;-83
2022/10/27 03:49:04;;;;;;;9.73;3.08;;;12.50;99.90;;;;;;5086977;28;20435;-83
2022/10/27 03:51:29;;;;;;;5.65;2.40;;;12.40;99.90;;;;;;5104502;28;20023;-83
2022/10/27 03:53:56;;;;;;;7.00;2.70;;;12.40;99.90;;;;;;5085560;28;20062;-83
2022/10/27 03:56:22;;;;;;;22.63;3.47;;;12.30;99.90;;;;;;5086410;28;20449;-83
2022/10/27 03:58:47;;;;;;;7.72;2.35;;;12.30;99.90;;;;;;5087714;28;20116;-83
2022/10/27 04:01:13;;;;;;;8.25;2.15;;;12.30;99.90;;;;;;5084670;28;20031;-82
2022/10/27 04:03:39;;;;;;;4.57;2.42;;;12.30;99.90;;;;;;5105607;28;20656;-83
2022/10/27 04:06:04;;;;;;;6.03;2.40;;;12.20;99.90;;;;;;5086145;28;20035;-82
2022/10/27 04:08:30;;;;;;;5.05;2.38;;;12.00;99.90;;;;;;5086558;28;20032;-83
2022/10/27 04:10:55;;;;;;;5.75;2.05;;;11.90;99.90;;;;;;5085354;28;20032;-82
2022/10/27 04:13:21;;;;;;;7.10;2.33;;;11.80;99.90;;;;;;5104116;28;20047;-83
2022/10/27 04:15:47;;;;;;;5.93;2.20;;;11.70;99.90;;;;;;5086433;28;20073;-82
2022/10/27 04:18:12;;;;;;;6.03;2.40;;;11.80;99.90;;;;;;5085604;28;20114;-83
2022/10/27 04:20:38;;;;;;;8.40;2.28;;;11.80;99.90;;;;;;5087732;28;20028;-82
2022/10/27 04:23:03;;;;;;;5.18;2.38;;;11.80;99.90;;;;;;5082945;28;20414;-81
2022/10/27 04:25:29;;;;;;;8.30;3.15;;;11.90;99.90;;;;;;5077614;28;20082;-81
2022/10/27 04:28:05;;;;;;;5.57;2.28;;;11.90;99.90;;;;;;5084574;28;20512;-83
2022/10/27 04:30:31;;;;;;;3.53;2.38;;;12.00;99.90;;;;;;5101983;28;20024;-82
2022/10/27 04:32:56;;;;;;;6.35;2.13;;;12.00;99.90;;;;;;5084770;28;20446;-82
2022/10/27 04:35:22;;;;;;;5.18;2.55;;;11.90;99.90;;;;;;5081986;28;20028;-83
2022/10/27 04:37:47;;;;;;;10.32;2.65;;;11.90;99.90;;;;;;5084838;28;20031;-82
2022/10/27 04:40:13;;;;;;;9.68;3.85;;;11.80;99.90;;;;;;5102688;28;20024;-82
2022/10/27 04:42:44;;;;;;;5.72;2.63;;;11.90;99.90;;;;;;5084158;28;20492;-82
2022/10/27 04:45:10;;;;;;;13.52;4.10;;;11.90;99.90;;;;;;5083765;28;20028;-83
2022/10/27 04:47:36;;;;;;;6.25;2.80;;;11.90;99.90;;;;;;5102833;28;20038;-82
2022/10/27 04:50:01;;;;;;;5.30;2.42;;;11.90;99.90;;;;;;5085726;28;20116;-82
2022/10/27 04:52:27;;;;;;;4.85;2.85;;;11.80;99.90;;;;;;5085538;28;20481;-82
2022/10/27 04:54:52;;;;;;;5.80;2.60;;;11.70;99.90;;;;;;5084172;28;20072;-86
2022/10/27 04:57:18;;;;;;;7.07;2.85;;;11.60;99.90;;;;;;5084723;28;20369;-83
2022/10/27 04:59:44;;;;;;;6.68;2.50;;;11.70;99.90;;;;;;5085751;28;20015;-82
2022/10/27 05:02:09;;;;;;;4.25;2.25;;;11.70;99.90;;;;;;5083347;28;20038;-82
2022/10/27 05:04:35;;;;;;;8.55;3.10;;;11.70;99.90;;;;;;5102557;28;20101;-84
2022/10/27 05:07:00;;;;;;;5.30;2.90;;;11.60;99.90;;;;;;5082958;28;20024;-83
2022/10/27 05:09:26;;;;;;;6.65;3.20;;;11.70;99.90;;;;;;5084814;28;20039;-80
2022/10/27 05:11:51;;;;;;;6.38;2.85;;;11.60;99.90;;;;;;5084300;28;20031;-80
2022/10/27 05:14:17;;;;;;;5.15;2.90;;;11.60;99.90;;;;;;5084657;28;20468;-80
2022/10/27 05:16:43;;;;;;;8.32;2.97;;;11.70;99.90;;;;;;5084395;28;20019;-80
2022/10/27 05:19:08;;;;;;;5.00;3.08;;;11.60;99.90;;;;;;5102732;28;20032;-80
2022/10/27 05:21:34;;;;;;;5.38;2.70;;;11.60;99.90;;;;;;5083333;28;20503;-80
2022/10/27 05:23:59;;;;;;;6.22;2.88;;;11.60;99.90;;;;;;5079886;28;20063;-81
2022/10/27 05:26:25;;;;;;;7.50;2.67;;;11.60;99.90;;;;;;5104161;28;20023;-81
2022/10/27 05:28:51;;;;;;;9.10;2.53;;;11.60;99.90;;;;;;5080357;28;20495;-80
2022/10/27 05:31:16;;;;;;;6.07;2.80;;;11.60;99.90;;;;;;5081177;28;20062;-82
2022/10/27 05:33:42;;;;;;;8.93;3.50;;;11.70;99.90;;;;;;5080919;28;20024;-82
2022/10/27 05:36:08;;;;;;;6.13;2.80;;;11.60;99.90;;;;;;5082791;28;20046;-82
2022/10/27 05:38:33;;;;;;;9.52;2.60;;;11.60;99.90;;;;;;5081292;28;20024;-82
2022/10/27 05:40:59;;;;;;;6.45;2.55;;;11.50;99.90;;;;;;5079327;28;20028;-83
2022/10/27 05:43:25;;;;;;;6.22;2.70;;;11.50;99.90;;;;;;5082241;28;20154;-83
2022/10/27 05:45:51;;;;;;;6.78;2.45;;;11.50;99.90;;;;;;5081034;28;20051;-84
2022/10/27 05:48:16;;;;;;;8.48;2.50;;;11.50;99.90;;;;;;5080112;28;20031;-83
2022/10/27 05:50:42;;;;;;;8.27;3.22;;;11.40;99.90;;;;;;5080130;28;20107;-84
2022/10/27 05:53:08;;;;;;;9.02;3.88;;;11.40;99.90;;;;;;5081289;28;20485;-85
2022/10/27 05:55:34;;;;;;;4.07;2.15;;;11.40;99.90;;;;;;5082227;28;20020;-85
2022/10/27 05:58:02;;;;;;;6.68;2.35;;;11.40;99.90;;;;;;5087611;28;20051;-84
2022/10/27 06:00:29;;;;;;;8.18;2.40;;;11.30;99.90;;;;;;5077534;28;20021;-87
2022/10/27 06:02:57;;;;;;;3.40;2.13;;;11.30;99.90;;;;;;5081549;28;20028;-87
2022/10/27 06:05:24;;;;;;;6.53;2.60;;;11.30;99.90;;;;;;5082049;28;20032;-87
2022/10/27 06:07:50;;;;;;;9.10;2.72;;;11.30;99.90;;;;;;5080520;28;20037;-85
2022/10/27 06:10:15;;;;;;;9.93;2.30;;;11.30;99.90;;;;;;5080133;28;20481;-86
2022/10/27 06:12:41;;;;;;;9.48;2.45;;;11.30;99.90;;;;;;5080855;28;20558;-86
2022/10/27 06:15:07;;;;;;;6.88;3.38;;;11.30;99.90;;;;;;5079216;28;20017;-84
2022/10/27 06:17:32;;;;;;;7.43;4.28;;;11.20;99.90;;;;;;5080940;28;20123;-84
2022/10/27 06:19:58;;;;;;;7.72;2.90;;;11.30;99.90;;;;;;5079641;28;20032;-84
2022/10/27 06:22:24;;;;;;;9.93;2.95;;;11.30;99.90;;;;;;5081957;28;20051;-84
2022/10/27 06:24:49;;;;;;;6.63;2.20;;;11.30;99.90;;;;;;5084261;28;20031;-84
2022/10/27 06:27:15;;;;;;;7.72;2.47;;;11.20;99.90;;;;;;5082843;28;20107;-85
2022/10/27 06:29:40;;;;;;;6.13;3.10;;;11.20;99.90;;;;;;5099622;28;20481;-85
2022/10/27 06:32:06;;;;;;;11.73;3.10;;;11.30;99.90;;;;;;5085842;28;20036;-83
2022/10/27 06:34:31;;;;;;;8.40;3.10;;;11.30;99.90;;;;;;5088483;28;20054;-84
2022/10/27 06:36:57;;;;;;;9.88;2.95;;;11.30;99.90;;;;;;5105008;28;20035;-84
2022/10/27 06:39:22;;;;;;;11.30;2.85;;;11.30;99.90;;;;;;5088095;28;20032;-85
2022/10/27 06:41:48;;;;;;;9.93;2.85;;;11.40;99.90;;;;;;5088132;28;20384;-84
2022/10/27 06:44:14;;;;;;;9.38;3.38;;;11.40;99.90;;;;;;5087250;28;20028;-84
2022/10/27 06:46:39;;;;;;;11.25;3.50;;;11.50;99.90;;;;;;5105231;28;20135;-84
2022/10/27 06:49:05;;;;;;;12.73;3.45;;;11.50;99.90;;;;;;5085927;28;20096;-84
2022/10/27 06:51:32;;;;;;;11.70;3.78;;;11.50;99.90;;;;;;5087044;28;20036;-83
2022/10/27 06:53:57;;;;;;;8.57;3.83;;;11.60;99.90;;;;;;5088102;28;20052;-86
2022/10/27 06:56:23;;;;;;;8.68;3.50;;;11.50;99.90;;;;;;5089302;28;20054;-86
2022/10/27 06:58:49;;;;;;;12.88;4.10;;;11.50;99.90;;;;;;5090140;28;20108;-83
2022/10/27 07:01:15;;;;;;;14.57;3.78;;;11.60;99.90;;;;;;5087263;28;20329;-83
2022/10/27 07:03:41;;;;;;;9.07;3.75;;;11.60;99.90;;;;;;5087925;28;20024;-83
2022/10/27 07:06:06;;;;;;;9.50;3.30;;;11.60;99.90;;;;;;5088036;28;20027;-83
2022/10/27 07:08:32;;;;;;;13.52;4.30;;;11.70;99.90;;;;;;5086648;28;20067;-83
2022/10/27 07:10:58;;;;;;;16.55;3.60;;;11.80;99.90;;;;;;5094176;28;20032;-87
2022/10/27 07:13:24;;;;;;;10.00;3.67;;;11.80;99.90;;;;;;5088066;28;20024;-83
2022/10/27 07:15:49;;;;;;;8.07;3.38;;;11.80;99.90;;;;;;5087126;28;20032;-82
2022/10/27 07:18:16;;;;;;;11.32;3.60;;;11.90;99.90;;;;;;5086157;28;20101;-85
2022/10/27 07:20:44;;;;;;;10.35;3.55;;;11.90;99.90;;;;;;5087403;28;20632;-84
2022/10/27 07:23:11;;;;;;;13.80;4.55;;;11.90;99.90;;;;;;5085386;28;20108;-83
2022/10/27 07:25:37;;;;;;;13.85;3.60;;;11.90;99.90;;;;;;5085942;28;20024;-83
2022/10/27 07:28:05;;;;;;;16.27;4.20;;;12.00;99.90;;;;;;5086362;28;20059;-84
2022/10/27 07:30:42;;;;;;;8.80;3.60;;;11.90;99.90;;;;;;5086235;28;20035;-84
2022/10/27 07:33:08;;;;;;;9.80;4.00;;;11.90;99.90;;;;;;5085373;28;20028;-85
2022/10/27 07:35:33;;;;;;;8.82;4.88;;;12.00;99.90;;;;;;5088070;28;20042;-85
2022/10/27 07:37:59;;;;;;;11.52;4.85;;;12.00;99.90;;;;;;5086660;28;20035;-84
2022/10/27 07:40:25;;;;;;;17.08;4.88;;;11.90;99.90;;;;;;5087592;28;20035;-84
2022/10/27 07:42:53;;;;;;;11.77;4.57;;;12.00;99.90;;;;;;5086603;28;20028;-82
2022/10/27 07:45:20;;;;;;;11.30;4.43;;;12.00;99.90;;;;;;5086312;28;20385;-81
2022/10/27 07:47:48;;;;;;;8.25;4.20;;;12.10;99.90;;;;;;5086660;28;20042;-81
2022/10/27 07:50:14;;;;;;;11.27;4.68;;;12.30;99.90;;;;;;5104858;28;20032;-83
2022/10/27 07:52:47;;;;;;;9.13;4.00;;;12.30;99.90;;;;;;5105646;28;20073;-83
2022/10/27 07:55:14;;;;;;;8.10;3.85;;;12.40;99.90;;;;;;5104043;28;20057;-81
2022/10/27 07:57:40;;;;;;;6.38;3.85;;;12.40;99.90;;;;;;5086521;28;20488;-81
2022/10/27 08:00:09;;;;;;;12.05;4.07;;;12.50;99.90;;;;;;5085403;28;20461;-81
2022/10/27 08:02:34;;;;;;;8.98;3.90;;;12.50;99.90;;;;;;5086332;28;20031;-82
2022/10/27 08:05:00;;;;;;;13.20;3.50;;;12.50;99.90;;;;;;5102771;28;20091;-84
2022/10/27 08:07:26;;;;;;;7.45;4.05;;;12.60;99.90;;;;;;5088286;28;20478;-83
2022/10/27 08:09:51;;;;;;;10.60;3.55;;;12.70;99.90;;;;;;5085710;28;20023;-82
2022/10/27 08:12:17;;;;;;;8.30;3.97;;;12.70;99.90;;;;;;5086454;28;20032;-83
2022/10/27 08:14:43;;;;;;;6.80;3.72;;;12.70;99.90;;;;;;5106763;28;20024;-82
2022/10/27 08:17:09;;;;;;;10.13;4.60;;;12.70;99.90;;;;;;5081124;28;20107;-82
2022/10/27 08:19:34;;;;;;;11.25;3.92;;;12.70;99.90;;;;;;5083326;28;20464;-82
2022/10/27 08:22:00;;;;;;;9.55;4.38;;;12.80;99.90;;;;;;5086267;28;20032;-83
2022/10/27 08:24:25;;;;;;;7.65;4.05;;;12.80;99.90;;;;;;5088911;28;20028;-83
2022/10/27 08:26:51;;;;;;;8.25;4.03;;;12.80;99.90;;;;;;5086294;28;20111;-81
2022/10/27 08:29:16;;;;;;;7.45;4.03;;;12.80;99.90;;;;;;5082562;28;20504;-82
2022/10/27 08:31:42;;;;;;;10.50;3.95;;;12.90;99.90;;;;;;5090446;28;20077;-80
2022/10/27 08:34:08;;;;;;;7.55;4.00;;;12.90;99.90;;;;;;5088350;28;20118;-81
2022/10/27 08:36:37;;;;;;;7.40;3.85;;;12.90;99.90;;;;;;5084234;28;20036;-81
2022/10/27 08:39:08;;;;;;;6.78;3.65;;;13.00;99.90;;;;;;5082096;28;20041;-84
2022/10/27 08:41:55;;;;;;;6.07;3.83;;;12.90;99.90;;;;;;5079680;28;20036;-83
2022/10/27 08:44:26;;;;;;;7.93;3.90;;;12.90;99.90;;;;;;5083352;28;20024;-83
2022/10/27 08:47:02;;;;;;;7.57;4.72;;;12.90;99.90;;;;;;5085258;28;20024;-83
2022/10/27 08:49:55;;;;;;;7.97;4.85;;;12.90;99.90;;;;;;5082216;28;20028;-83
2022/10/27 08:52:45;;;;;;;7.38;4.05;;;13.00;99.90;;;;;;5082701;28;20024;-84
2022/10/27 08:55:14;;;;;;;7.55;4.15;;;13.00;99.90;;;;;;5088389;28;20384;-83
2022/10/27 08:58:00;;;;;;;7.68;4.30;;;13.10;99.90;;;;;;5092899;28;20115;-82
2022/10/27 09:00:29;;;;;;;9.40;4.68;;;13.10;99.90;;;;;;5072918;28;20127;-81
2022/10/27 09:03:28;;;;;;;10.02;4.40;;;13.10;99.90;;;;;;5089526;28;20082;-84
2022/10/27 09:06:07;;;;;;;9.20;4.90;;;13.20;99.90;;;;;;5089541;28;20032;-81
2022/10/27 09:08:36;;;;;;;8.38;4.63;;;13.20;99.90;;;;;;5089264;28;20020;-84
2022/10/27 09:11:12;;;;;;;9.45;4.90;;;13.20;99.90;;;;;;5083521;28;20062;-84
2022/10/27 09:13:37;;;;;;;8.88;5.03;;;13.20;99.90;;;;;;5085413;28;20024;-83
2022/10/27 09:16:11;;;;;;;9.52;4.72;;;13.20;99.90;;;;;;5084568;28;20461;-84
2022/10/27 09:18:42;;;;;;;10.95;4.95;;;13.20;99.90;;;;;;5085523;28;20458;-83
2022/10/27 09:21:14;;;;;;;10.57;5.32;;;13.20;99.90;;;;;;5086204;28;20024;-83
2022/10/27 09:23:49;;;;;;;10.63;5.43;;;13.30;99.90;;;;;;5087704;28;20024;-86
2022/10/27 09:26:18;;;;;;;13.07;5.18;;;13.30;99.90;;;;;;5084770;28;20040;-84
2022/10/27 09:28:48;;;;;;;12.63;5.40;;;13.30;99.90;;;;;;5090052;28;20051;-84
2022/10/27 09:31:17;;;;;;;9.23;5.25;;;13.40;99.90;;;;;;5089272;28;20058;-84
2022/10/27 09:34:00;;;;;;;12.23;4.85;;;13.30;99.90;;;;;;5094220;28;20024;-85
2022/10/27 09:36:27;;;;;;;8.57;5.10;;;13.40;99.90;;;;;;5091240;28;20140;-84
2022/10/27 09:38:52;;;;;;;9.05;5.30;;;13.40;99.90;;;;;;5094049;28;20060;-84
2022/10/27 09:41:18;;;;;;;10.38;5.30;;;13.40;99.90;;;;;;5093321;28;20063;-86
2022/10/27 09:43:43;;;;;;;11.95;5.50;;;13.40;99.90;;;;;;5094083;28;20506;-83
2022/10/27 09:46:23;;;;;;;10.02;4.93;;;13.50;99.90;;;;;;5095128;28;20029;-85
2022/10/27 09:48:56;;;;;;;11.85;5.40;;;13.60;99.90;;;;;;5094335;28;20116;-87
2022/10/27 09:51:25;;;;;;;10.77;5.60;;;13.60;99.90;;;;;;5090019;28;20039;-85
2022/10/27 09:53:52;;;;;;;10.93;5.25;;;13.70;99.90;;;;;;5092179;28;20034;-85
2022/10/27 09:56:24;;;;;;;11.85;5.38;;;13.70;99.90;;;;;;5092062;28;20032;-85
2022/10/27 09:58:56;;;;;;;10.95;5.93;;;13.80;99.90;;;;;;5095742;28;20453;-85
2022/10/27 10:01:23;;;;;;;;;;;13.80;99.90;;;;;;5097348;28;20036;-84
2022/10/27 10:03:59;;;;;;;10.82;6.10;;;13.90;99.90;;;;;;5095674;28;19908;-83
2022/10/27 10:06:33;;;;;;;15.48;6.85;;;13.90;99.90;;;;;;5094744;28;20301;-83
2022/10/27 10:09:16;;;;;;;12.82;7.03;;;14.00;99.90;;;;;;5093903;28;20095;-83
2022/10/27 10:11:41;;;;;;;15.68;7.43;;;14.00;99.90;;;;;;5093882;28;20024;-83
2022/10/27 10:14:21;;;;;;;13.65;6.60;;;14.00;99.90;;;;;;5094537;28;20027;-87
2022/10/27 10:16:48;;;;;;;14.55;7.07;;;14.10;99.90;;;;;;5094608;28;20027;-83
2022/10/27 10:19:31;;;;;;;14.07;7.40;;;14.10;99.90;;;;;;5094336;28;20040;-83
2022/10/27 10:21:59;;;;;;;14.85;7.10;;;14.10;99.90;;;;;;5094919;28;20100;-83
2022/10/27 10:24:28;;;;;;;13.95;6.90;;;14.20;99.90;;;;;;5094400;28;20024;-83
2022/10/27 10:26:59;;;;;;;14.73;7.20;;;14.30;99.90;;;;;;5094372;28;20109;-81
2022/10/27 10:29:46;;;;;;;15.00;7.20;;;14.30;99.90;;;;;;5089839;28;20054;-82
2022/10/27 10:32:18;;;;;;;14.43;6.93;;;14.40;99.90;;;;;;5089779;28;20032;-85
2022/10/27 10:34:44;;;;;;;13.50;7.53;;;14.40;99.90;;;;;;5089232;28;20469;-83
2022/10/27 10:37:46;;;;;;;14.50;6.57;;;14.50;99.90;;;;;;5109042;28;20060;-83
2022/10/27 10:40:12;;;;;;;16.58;6.40;;;14.60;99.90;;;;;;5089603;28;20021;-83
2022/10/27 10:42:38;;;;;;;15.65;6.63;;;14.70;99.90;;;;;;5090391;28;20054;-81
2022/10/27 10:45:24;;;;;;;16.08;6.95;;;14.70;99.90;;;;;;5105242;28;20032;-82
2022/10/27 10:47:56;;;;;;;13.13;7.00;;;14.80;99.90;;;;;;5084402;28;20028;-82
2022/10/27 10:50:22;;;;;;;14.27;7.00;;;14.80;99.90;;;;;;5086761;28;20111;-82
2022/10/27 10:52:51;;;;;;;14.40;6.90;;;14.90;99.90;;;;;;5086743;28;20060;-83
2022/10/27 10:55:19;;;;;;;16.75;6.90;;;14.90;99.90;;;;;;5087634;28;20457;-82
2022/10/27 10:57:47;;;;;;;15.57;5.70;;;15.00;99.90;;;;;;5087217;28;20060;-82
2022/10/27 11:00:15;;;;;;;15.27;5.35;;;15.10;99.90;;;;;;5087203;28;20484;-82
2022/10/27 11:02:42;;;;;;;13.65;6.40;;;15.10;99.90;;;;;;5085264;28;20039;-82
2022/10/27 11:05:16;;;;;;;15.15;6.07;;;15.20;99.90;;;;;;5104645;28;20027;-86
2022/10/27 11:07:46;;;;;;;11.88;4.93;;;15.20;99.90;;;;;;5087454;28;20020;-82
2022/10/27 11:10:14;;;;;;;11.88;4.40;;;15.20;99.90;;;;;;5086555;28;20054;-82
2022/10/27 11:13:00;;;;;;;12.30;4.50;;;15.30;99.90;;;;;;5087550;28;20039;-81
2022/10/27 11:15:34;;;;;;;9.90;4.80;;;15.50;99.90;;;;;;5085132;28;20040;-83
2022/10/27 11:18:11;;;;;;;10.32;3.88;;;15.50;99.90;;;;;;5086575;28;20398;-81
2022/10/27 11:20:37;;;;;;;17.35;4.95;;;15.60;99.90;;;;;;5104126;28;20024;-82
2022/10/27 11:23:28;;;;;;;12.55;4.35;;;15.60;99.90;;;;;;5086175;28;20465;-81
2022/10/27 11:26:00;;;;;;;14.35;4.15;;;15.60;99.90;;;;;;5087664;28;20055;-81
2022/10/27 11:28:45;;;;;;;16.38;5.07;;;15.70;99.90;;;;;;5087409;28;20052;-83
2022/10/27 11:31:17;;;;;;;16.40;4.72;;;15.70;99.90;;;;;;5094555;28;20063;-84
2022/10/27 11:34:17;;;;;;;13.95;4.45;;;15.70;99.90;;;;;;5094839;28;20083;-82
2022/10/27 11:37:07;;;;;;;11.02;3.50;;;15.70;99.90;;;;;;5094758;28;20028;-82
2022/10/27 11:40:01;;;;;;;14.52;4.47;;;15.80;99.90;;;;;;5093479;28;20472;-82
2022/10/27 11:42:29;;;;;;;6.93;3.28;;;15.90;99.90;;;;;;5094064;28;20031;-83
2022/10/27 11:45:06;;;;;;;6.95;3.55;;;16.10;99.90;;;;;;5104950;28;20024;-82
2022/10/27 11:47:47;;;;;;;10.90;4.03;;;16.20;99.90;;;;;;5094542;28;20035;-83
2022/10/27 11:50:21;;;;;;;9.98;3.28;;;16.20;99.90;;;;;;5094429;28;20469;-82
2022/10/27 11:52:56;;;;;;;7.57;3.30;;;16.40;99.90;;;;;;5093672;28;20031;-82
2022/10/27 11:55:27;;;;;;;8.02;3.22;;;16.60;99.90;;;;;;5093434;28;20094;-83
2022/10/27 11:58:23;;;;;;;7.03;3.22;;;16.90;99.90;;;;;;5094110;28;20023;-82
2022/10/27 12:01:11;;;;;;;6.95;3.13;;;17.10;99.90;;;;;;5094191;28;20043;-83
2022/10/27 12:04:02;;;;;;;10.55;3.40;;;17.40;99.90;;;;;;5094252;28;20034;-83
2022/10/27 12:06:52;;;;;;;6.32;2.70;;;17.70;99.90;;;;;;5092741;28;20062;-82
2022/10/27 12:09:49;;;;;;;10.63;3.20;;;18.10;99.90;;;;;;5093899;28;20032;-82
2022/10/27 12:12:56;;;;;;;8.05;2.63;;;18.40;99.90;;;;;;5093374;28;20031;-82
2022/10/27 12:15:40;;;;;;;7.95;2.90;;;18.70;99.90;;;;;;5092960;28;20020;-83
2022/10/27 12:18:22;;;;;;;5.75;2.97;;;19.00;99.90;;;;;;5093732;28;20032;-82
2022/10/27 12:21:23;;;;;;;8.00;3.10;;;19.20;99.90;;;;;;5092732;28;20024;-83
2022/10/27 12:24:24;;;;;;;8.15;2.63;;;19.50;99.90;;;;;;5100412;28;20047;-82
2022/10/27 12:27:21;;;;;;;6.07;2.42;;;19.70;99.90;;;;;;5063315;28;20063;-83
2022/10/27 12:29:51;;;;;;;8.00;2.40;;;20.20;99.90;;;;;;5076089;28;20040;-83
2022/10/27 12:32:24;;;;;;;6.15;2.15;;;20.80;99.90;;;;;;5081452;28;20024;-83
2022/10/27 12:35:02;;;;;;;5.45;2.22;;;21.50;99.90;;;;;;5083160;28;20124;-83
2022/10/27 12:37:52;;;;;;;6.35;2.40;;;22.20;99.90;;;;;;5082662;28;20039;-83
2022/10/27 12:40:29;;;;;;;4.13;2.35;;;22.90;99.90;;;;;;5081830;28;20110;-83
2022/10/27 12:43:01;;;;;;;5.18;2.40;;;23.40;99.90;;;;;;5081594;28;20032;-83
2022/10/27 12:45:33;;;;;;;7.63;1.85;;;24.00;99.90;;;;;;5083310;28;20031;-84
2022/10/27 12:48:16;;;;;;;5.50;2.03;;;24.30;99.90;;;;;;5082929;28;20032;-83
2022/10/27 12:50:47;;;;;;;4.43;2.00;;;24.90;99.90;;;;;;5083802;28;20056;-83
2022/10/27 12:53:37;;;;;;;6.15;2.28;;;25.20;99.90;;;;;;5082417;28;20088;-83
2022/10/27 12:56:24;;;;;;;11.82;1.98;;;25.60;98.70;;;;;;5082896;28;20029;-84
2022/10/27 12:59:00;;;;;;;10.88;2.45;;;26.10;96.90;;;;;;5082502;28;20052;-83
2022/10/27 13:01:52;;;;;;;7.55;2.80;;;26.50;95.50;;;;;;5081579;28;20055;-82